Time;durP1;ratioP1;P1;durP2;ratioP2;P2;SDS_P1;SDS_P2;PMS_P1;PMS_P2;Temp;Humidity;BMP_temperature;BMP_pressure;BME280_temperature;BME280_humidity;BME280_pressure;Samples;Min_cycle;Max_cycle;Signal;HPM_P1;HPM_P2
2022/09/22 00:00:39;;;;;;;25.83;21.40;;;;;;;8.38;87.72;102432.41;5071137;28;20032;-58
2022/09/22 00:03:05;;;;;;;28.35;21.10;;;;;;;8.25;87.41;102427.16;5077133;28;20116;-57
2022/09/22 00:05:30;;;;;;;27.67;21.45;;;;;;;8.27;87.75;102424.38;5077337;28;20053;-60
2022/09/22 00:07:55;;;;;;;26.08;21.23;;;;;;;8.31;87.42;102428.50;5069261;28;20081;-58
2022/09/22 00:10:21;;;;;;;26.27;21.88;;;;;;;8.21;87.67;102423.00;5070079;28;20585;-61
2022/09/22 00:12:50;;;;;;;28.10;22.63;;;;;;;8.24;87.75;102421.97;5072755;28;20047;-58
2022/09/22 00:15:17;;;;;;;26.83;21.33;;;;;;;8.18;88.28;102413.50;5077870;28;20034;-57
2022/09/22 00:17:43;;;;;;;28.80;21.65;;;;;;;8.23;87.79;102417.63;5075787;28;20084;-59
2022/09/22 00:20:11;;;;;;;27.00;21.60;;;;;;;8.23;87.81;102425.56;5066965;28;20031;-59
2022/09/22 00:22:36;;;;;;;29.15;20.85;;;;;;;8.15;87.83;102413.69;5071431;28;20036;-60
2022/09/22 00:25:02;;;;;;;28.50;20.85;;;;;;;8.19;87.18;102420.47;5070067;28;20043;-58
2022/09/22 00:27:27;;;;;;;26.80;21.90;;;;;;;8.13;87.19;102420.91;5070407;28;20055;-59
2022/09/22 00:29:52;;;;;;;25.80;21.20;;;;;;;8.08;87.31;102417.72;5070160;28;20028;-60
2022/09/22 00:32:17;;;;;;;27.55;21.10;;;;;;;8.08;87.51;102417.72;5079377;28;20036;-58
2022/09/22 00:34:43;;;;;;;25.52;21.42;;;;;;;8.03;87.44;102419.84;5070727;28;20027;-59
2022/09/22 00:37:09;;;;;;;28.02;20.65;;;;;;;8.04;87.73;102421.56;5067013;28;20055;-58
2022/09/22 00:39:35;;;;;;;23.92;20.92;;;;;;;8.00;87.88;102414.78;5065488;28;20368;-59
2022/09/22 00:42:00;;;;;;;24.20;19.70;;;;;;;8.02;87.58;102411.09;5072802;28;20089;-58
2022/09/22 00:44:26;;;;;;;26.55;19.80;;;;;;;8.00;87.75;102420.06;5073502;28;20048;-61
2022/09/22 00:46:55;;;;;;;24.55;20.30;;;;;;;7.94;87.47;102405.47;5073712;28;20051;-58
2022/09/22 00:49:27;;;;;;;24.83;20.38;;;;;;;7.83;87.80;102411.47;5075802;28;20046;-60
2022/09/22 00:51:53;;;;;;;23.60;20.15;;;;;;;7.93;87.91;102409.91;5076695;28;20032;-61
2022/09/22 00:54:19;;;;;;;25.17;19.92;;;;;;;7.92;88.09;102413.50;5072489;28;20027;-61
2022/09/22 00:57:02;;;;;;;23.55;20.05;;;;;;;7.88;87.88;102412.03;5068451;28;20033;-59
2022/09/22 00:59:27;;;;;;;23.75;19.25;;;;;;;7.91;87.09;102417.06;5064343;28;20376;-59
2022/09/22 01:01:54;;;;;;;24.65;19.35;;;;;;;7.88;87.87;102405.88;5070487;28;20023;-60
2022/09/22 01:04:19;;;;;;;24.05;19.33;;;;;;;7.90;87.70;102398.72;5073848;28;20115;-59
2022/09/22 01:06:45;;;;;;;23.25;18.75;;;;;;;7.90;87.36;102394.25;5071194;28;20115;-60
2022/09/22 01:09:11;;;;;;;24.63;18.80;;;;;;;7.87;87.79;102391.00;5070035;28;20046;-60
2022/09/22 01:11:38;;;;;;;22.75;18.63;;;;;;;7.86;87.36;102398.09;5073840;28;20518;-57
2022/09/22 01:14:22;;;;;;;23.65;18.85;;;;;;;7.87;87.30;102393.63;5067663;28;20043;-58
2022/09/22 01:16:56;;;;;;;23.52;18.85;;;;;;;7.84;86.88;102384.13;5069683;28;20039;-60
2022/09/22 01:20:02;;;;;;;23.38;19.63;;;;;;;7.83;87.52;102387.72;5078808;28;20373;-58
2022/09/22 01:22:57;;;;;;;22.55;18.67;;;;;;;7.72;87.71;102379.69;5042992;28;20036;-59
2022/09/22 01:26:10;;;;;;;24.30;18.35;;;;;;;7.83;87.55;102385.06;5078805;28;20044;-59
2022/09/22 01:29:13;;;;;;;22.83;18.88;;;;;;;7.79;88.08;102373.03;5072017;28;20498;-58
2022/09/22 01:31:57;;;;;;;23.60;19.08;;;;;;;7.67;87.87;102383.50;5077188;28;20048;-57
2022/09/22 01:34:29;;;;;;;23.85;18.52;;;;;;;7.69;87.54;102379.91;5073968;28;20033;-59
2022/09/22 01:37:15;;;;;;;23.17;18.42;;;;;;;7.62;87.50;102369.75;5069101;28;20036;-58
2022/09/22 01:39:53;;;;;;;22.30;18.75;;;;;;;7.69;88.17;102377.25;5076187;28;20775;-58
2022/09/22 01:42:35;;;;;;;21.45;18.77;;;;;;;7.64;87.57;102367.84;5074421;28;20086;-58
2022/09/22 01:45:18;;;;;;;24.60;20.13;;;;;;;7.67;87.38;102370.28;5083645;28;20048;-59
2022/09/22 01:47:54;;;;;;;22.20;18.45;;;;;;;7.64;87.42;102367.84;5068195;28;20051;-60
2022/09/22 01:50:33;;;;;;;22.50;18.38;;;;;;;7.66;87.63;102371.22;5083982;28;20039;-60
2022/09/22 01:53:05;;;;;;;22.40;18.77;;;;;;;7.61;87.63;102367.22;5069895;28;20395;-61
2022/09/22 01:55:35;;;;;;;22.30;18.73;;;;;;;7.59;87.58;102362.03;5068590;28;20028;-58
2022/09/22 01:58:04;;;;;;;22.35;18.88;;;;;;;7.57;87.54;102356.03;5079103;28;20059;-60
2022/09/22 02:00:31;;;;;;;21.08;18.45;;;;;;;7.55;87.48;102357.91;5079344;28;20023;-58
2022/09/22 02:03:18;;;;;;;23.13;19.77;;;;;;;7.58;87.85;102360.34;5070633;28;20024;-58
2022/09/22 02:05:49;;;;;;;22.27;18.95;;;;;;;7.52;87.45;102352.84;5075533;28;20120;-58
2022/09/22 02:08:27;;;;;;;22.40;18.83;;;;;;;7.55;87.35;102349.97;5070270;28;20079;-58
2022/09/22 02:10:57;;;;;;;24.27;18.27;;;;;;;7.48;87.75;102351.34;5070815;28;20160;-58
2022/09/22 02:13:23;;;;;;;22.25;18.52;;;;;;;7.46;87.44;102350.63;5073652;28;20042;-60
2022/09/22 02:16:01;;;;;;;23.98;18.73;;;;;;;7.36;87.81;102347.75;5073440;28;20840;-57
2022/09/22 02:18:32;;;;;;;22.08;18.48;;;;;;;7.29;87.91;102347.31;5073169;28;20515;-59
2022/09/22 02:20:58;;;;;;;22.52;18.27;;;;;;;7.27;87.99;102333.38;5069530;28;20097;-61
2022/09/22 02:23:24;;;;;;;22.33;17.88;;;;;;;7.32;87.92;102341.84;5069804;28;20032;-60
2022/09/22 02:25:50;;;;;;;22.63;17.92;;;;;;;7.29;88.13;102336.75;5070715;28;20497;-59
2022/09/22 02:28:19;;;;;;;20.17;17.98;;;;;;;7.32;88.16;102330.44;5067707;28;20044;-58
2022/09/22 02:30:47;;;;;;;23.63;18.60;;;;;;;7.26;87.87;102332.53;5070651;28;20563;-60
2022/09/22 02:33:13;;;;;;;25.15;18.80;;;;;;;7.29;88.26;102334.13;5068805;28;20123;-59
2022/09/22 02:35:39;;;;;;;24.55;18.50;;;;;;;7.30;87.80;102330.53;5073311;28;20107;-61
2022/09/22 02:38:34;;;;;;;25.20;18.98;;;;;;;7.35;88.21;102333.69;5072574;28;20889;-59
2022/09/22 02:41:07;;;;;;;21.92;17.92;;;;;;;7.29;87.99;102336.75;5073050;28;20024;-59
2022/09/22 02:43:49;;;;;;;24.15;18.88;;;;;;;7.33;88.07;102325.06;5080156;28;20032;-58
2022/09/22 02:46:31;;;;;;;23.30;18.42;;;;;;;7.30;88.05;102327.88;5069746;28;20044;-58
2022/09/22 02:49:02;;;;;;;21.77;18.70;;;;;;;7.27;87.56;102317.56;5071788;28;20479;-58
2022/09/22 02:51:29;;;;;;;25.48;19.13;;;;;;;7.22;88.18;102314.38;5072044;28;20312;-58
2022/09/22 02:53:55;;;;;;;22.98;18.70;;;;;;;7.22;87.63;102319.66;5072494;28;20032;-58
2022/09/22 02:56:20;;;;;;;23.20;18.83;;;;;;;7.17;88.35;102316.47;5066239;28;20040;-58
2022/09/22 02:58:45;;;;;;;22.42;18.63;;;;;;;7.16;88.12;102313.00;5078179;28;20036;-59
2022/09/22 03:01:11;;;;;;;23.10;18.50;;;;;;;7.14;87.92;102312.25;5078287;28;20032;-59
2022/09/22 03:03:36;;;;;;;22.60;18.75;;;;;;;7.13;88.10;102310.56;5069292;28;20036;-57
2022/09/22 03:06:01;;;;;;;24.48;19.15;;;;;;;7.09;87.93;102307.28;5078939;28;20031;-60
2022/09/22 03:08:27;;;;;;;21.92;18.95;;;;;;;7.10;88.14;102305.47;5073791;28;20462;-58
2022/09/22 03:10:52;;;;;;;26.15;19.65;;;;;;;7.06;88.18;102314.56;5082620;28;20040;-59
2022/09/22 03:13:17;;;;;;;25.13;20.25;;;;;;;7.05;88.04;102308.41;5072167;28;20043;-59
2022/09/22 03:15:45;;;;;;;25.48;18.83;;;;;;;7.02;88.26;102306.00;5079641;28;20055;-59
2022/09/22 03:18:11;;;;;;;25.05;19.00;;;;;;;7.02;87.92;102306.00;5066231;28;20598;-60
2022/09/22 03:20:36;;;;;;;23.13;18.92;;;;;;;7.01;88.48;102301.69;5070258;28;20033;-58
2022/09/22 03:23:01;;;;;;;23.45;19.05;;;;;;;7.00;88.11;102306.09;5067942;28;20033;-58
2022/09/22 03:25:27;;;;;;;24.02;19.25;;;;;;;6.96;88.07;102299.31;5074921;28;20120;-58
2022/09/22 03:27:52;;;;;;;23.42;19.35;;;;;;;6.99;88.08;102300.91;5079880;28;20479;-59
2022/09/22 03:30:17;;;;;;;26.33;19.48;;;;;;;6.94;87.70;102301.22;5080061;28;20037;-61
2022/09/22 03:32:43;;;;;;;22.80;19.13;;;;;;;6.92;87.66;102297.00;5068858;28;20058;-58
2022/09/22 03:35:08;;;;;;;26.05;20.35;;;;;;;6.91;88.00;102295.31;5076800;28;20039;-58
2022/09/22 03:37:34;;;;;;;25.60;19.92;;;;;;;6.89;87.98;102297.19;5073373;28;20036;-58
2022/09/22 03:40:00;;;;;;;25.88;20.77;;;;;;;6.86;88.03;102290.34;5081707;28;20036;-59
2022/09/22 03:42:25;;;;;;;28.38;20.67;;;;;;;6.84;88.26;102295.72;5068412;28;20033;-59
2022/09/22 03:44:50;;;;;;;29.10;20.95;;;;;;;6.83;88.26;102288.75;5080087;28;20044;-59
2022/09/22 03:47:16;;;;;;;26.75;20.83;;;;;;;6.80;88.02;102288.94;5070248;28;20067;-59
2022/09/22 03:49:41;;;;;;;28.15;21.92;;;;;;;6.80;88.63;102283.66;5068454;28;20107;-57
2022/09/22 03:52:07;;;;;;;27.35;21.83;;;;;;;6.79;88.39;102292.53;5071914;28;20106;-59
2022/09/22 03:54:34;;;;;;;25.35;20.38;;;;;;;6.78;88.14;102292.63;5072671;28;20036;-60
2022/09/22 03:56:59;;;;;;;29.38;21.55;;;;;;;6.75;88.49;102291.03;5074017;28;20020;-59
2022/09/22 03:59:24;;;;;;;26.65;21.67;;;;;;;6.74;88.63;102281.44;5073450;28;20098;-57
2022/09/22 04:01:50;;;;;;;27.30;21.38;;;;;;;6.77;88.47;102294.44;5067598;28;20036;-60
2022/09/22 04:04:16;;;;;;;30.98;22.40;;;;;;;6.72;88.88;102292.06;5072016;28;20048;-59
2022/09/22 04:06:41;;;;;;;26.73;21.13;;;;;;;6.71;88.54;102286.94;5068898;28;20064;-59
2022/09/22 04:09:06;;;;;;;26.40;21.35;;;;;;;6.70;88.98;102287.84;5070130;28;20033;-58
2022/09/22 04:11:32;;;;;;;29.20;21.83;;;;;;;6.65;88.92;102287.31;5070078;28;20051;-58
2022/09/22 04:13:58;;;;;;;26.23;21.02;;;;;;;6.64;88.76;102278.56;5074029;28;20067;-59
2022/09/22 04:16:24;;;;;;;29.15;21.45;;;;;;;6.59;88.72;102270.97;5068474;28;20052;-60
2022/09/22 04:18:50;;;;;;;26.67;21.48;;;;;;;6.53;88.54;102279.28;5067103;28;20521;-59
2022/09/22 04:21:15;;;;;;;26.00;20.73;;;;;;;6.56;88.64;102275.59;5072861;28;20036;-58
2022/09/22 04:23:40;;;;;;;25.35;21.65;;;;;;;6.54;89.03;102278.31;5068813;28;20035;-57
2022/09/22 04:26:06;;;;;;;26.02;21.17;;;;;;;6.52;88.88;102269.66;5070748;28;20848;-60
2022/09/22 04:28:31;;;;;;;27.10;20.98;;;;;;;6.56;89.08;102270.31;5068978;28;20096;-60
2022/09/22 04:30:57;;;;;;;23.90;20.35;;;;;;;6.54;89.19;102266.91;5079251;28;20102;-58
2022/09/22 04:33:23;;;;;;;27.00;21.40;;;;;;;6.51;89.37;102273.22;5071201;28;20044;-61
2022/09/22 04:35:49;;;;;;;25.90;21.77;;;;;;;6.49;89.02;102280.41;5070655;28;20244;-61
2022/09/22 04:38:16;;;;;;;27.27;21.02;;;;;;;6.47;89.09;102271.75;5073240;28;20042;-62
2022/09/22 04:40:41;;;;;;;28.20;21.70;;;;;;;6.50;89.16;102278.63;5070792;28;20037;-61
2022/09/22 04:43:06;;;;;;;25.63;21.20;;;;;;;6.47;89.25;102277.03;5067211;28;20043;-61
2022/09/22 04:45:31;;;;;;;26.85;21.70;;;;;;;6.49;88.82;102277.75;5062129;28;20360;-62
2022/09/22 04:47:57;;;;;;;26.65;21.63;;;;;;;6.49;89.24;102280.41;5066603;28;20066;-61
2022/09/22 04:50:22;;;;;;;27.85;21.80;;;;;;;6.46;89.64;102275.31;5062008;28;20516;-61
2022/09/22 04:52:53;;;;;;;28.33;21.58;;;;;;;6.46;89.55;102275.31;5068415;28;20036;-58
2022/09/22 04:55:20;;;;;;;23.45;20.83;;;;;;;6.44;89.33;102271.94;5064705;28;20577;-58
2022/09/22 04:57:50;;;;;;;29.60;21.25;;;;;;;6.43;89.17;102275.53;5067303;28;20450;-60
2022/09/22 05:00:16;;;;;;;28.92;22.42;;;;;;;6.41;89.65;102275.63;5069296;28;20052;-59
2022/09/22 05:02:42;;;;;;;25.73;22.02;;;;;;;6.39;89.52;102271.38;5071372;28;20023;-57
2022/09/22 05:05:08;;;;;;;24.33;21.45;;;;;;;6.44;89.54;102279.84;5069076;28;20497;-58
2022/09/22 05:07:33;;;;;;;26.83;21.55;;;;;;;6.33;89.32;102270.84;5072957;28;20395;-60
2022/09/22 05:09:59;;;;;;;26.83;21.52;;;;;;;6.30;89.62;102265.78;5071065;28;20032;-57
2022/09/22 05:12:25;;;;;;;29.42;22.40;;;;;;;6.33;89.94;102276.09;5069023;28;20028;-59
2022/09/22 05:14:51;;;;;;;25.98;22.20;;;;;;;6.32;89.52;102279.69;5067091;28;20038;-60
2022/09/22 05:17:17;;;;;;;26.80;21.95;;;;;;;6.31;89.38;102278.00;5065675;28;20032;-57
2022/09/22 05:19:42;;;;;;;27.40;22.13;;;;;;;6.35;89.72;102277.81;5063427;28;20029;-57
2022/09/22 05:22:08;;;;;;;28.05;22.13;;;;;;;6.33;89.46;102270.84;5058404;28;20506;-57
2022/09/22 05:24:34;;;;;;;26.38;22.15;;;;;;;6.31;90.05;102277.13;5067103;28;20028;-59
2022/09/22 05:26:59;;;;;;;27.60;22.13;;;;;;;6.31;89.57;102275.38;5069736;28;20044;-57
2022/09/22 05:29:24;;;;;;;28.00;21.88;;;;;;;6.30;89.84;102284.22;5069298;28;20028;-59
2022/09/22 05:31:50;;;;;;;27.40;21.77;;;;;;;6.26;89.45;102274.81;5067026;28;20115;-58
2022/09/22 05:34:15;;;;;;;25.73;21.58;;;;;;;6.28;89.85;102288.72;5064755;28;20032;-60
2022/09/22 05:36:43;;;;;;;28.83;22.00;;;;;;;6.26;89.70;102284.53;5061948;28;20052;-57
2022/09/22 05:39:08;;;;;;;26.60;21.67;;;;;;;6.29;89.74;102294.84;5065607;28;20075;-59
2022/09/22 05:41:34;;;;;;;26.60;20.95;;;;;;;6.27;90.00;102287.03;5076931;28;20056;-58
2022/09/22 05:43:59;;;;;;;24.95;20.63;;;;;;;6.25;89.97;102288.94;5069253;28;20032;-59
2022/09/22 05:46:24;;;;;;;28.88;22.13;;;;;;;6.29;90.24;102290.44;5071132;28;20047;-58
2022/09/22 05:48:50;;;;;;;26.48;20.25;;;;;;;6.28;90.10;102287.88;5073761;28;20127;-59
2022/09/22 05:51:15;;;;;;;26.73;21.67;;;;;;;6.22;90.11;102283.00;5065278;28;20040;-60
2022/09/22 05:53:40;;;;;;;27.60;22.20;;;;;;;6.22;90.36;102289.09;5070292;28;20033;-61
2022/09/22 05:56:07;;;;;;;29.20;21.85;;;;;;;6.24;90.66;102281.97;5063349;28;20052;-60
2022/09/22 05:58:32;;;;;;;30.90;22.27;;;;;;;6.27;91.25;102287.03;5069759;28;20464;-60
2022/09/22 06:00:57;;;;;;;29.23;22.48;;;;;;;6.32;91.61;102284.13;5067395;28;20036;-60
2022/09/22 06:03:23;;;;;;;28.15;22.35;;;;;;;6.36;91.83;102290.88;5064888;28;20097;-62
2022/09/22 06:05:49;;;;;;;28.52;22.60;;;;;;;6.36;91.83;102287.41;5060104;28;20032;-61
2022/09/22 06:08:15;;;;;;;27.45;22.17;;;;;;;6.40;91.92;102294.16;5064614;28;20059;-63
2022/09/22 06:10:40;;;;;;;26.95;23.00;;;;;;;6.40;92.16;102296.78;5072709;28;20058;-60
2022/09/22 06:13:09;;;;;;;29.38;23.50;;;;;;;6.47;92.51;102298.13;5070591;28;20139;-63
2022/09/22 06:15:36;;;;;;;32.17;23.95;;;;;;;6.48;92.84;102297.16;5079797;28;20047;-59
2022/09/22 06:18:05;;;;;;;28.95;23.08;;;;;;;6.58;92.93;102300.03;5069718;28;20035;-61
2022/09/22 06:20:31;;;;;;;26.88;23.10;;;;;;;6.59;92.96;102302.59;5064219;28;20028;-60
2022/09/22 06:22:56;;;;;;;28.55;23.38;;;;;;;6.59;93.39;102297.31;5067257;28;20060;-61
2022/09/22 06:25:22;;;;;;;28.13;23.13;;;;;;;6.68;93.22;102289.75;5060712;28;20407;-61
2022/09/22 06:27:58;;;;;;;35.33;23.63;;;;;;;6.71;93.92;102289.56;5064261;28;20128;-63
2022/09/22 06:30:24;;;;;;;30.30;23.73;;;;;;;6.77;93.86;102299.72;5062734;28;20126;-59
2022/09/22 06:32:53;;;;;;;31.02;24.48;;;;;;;6.79;94.30;102287.25;5067512;28;20452;-60
2022/09/22 06:35:18;;;;;;;32.90;24.45;;;;;;;6.82;93.97;102284.41;5070143;28;20059;-61
2022/09/22 06:37:44;;;;;;;31.15;25.17;;;;;;;6.84;94.47;102290.44;5071072;28;20052;-61
2022/09/22 06:40:09;;;;;;;33.70;24.70;;;;;;;6.92;95.02;102289.09;5070719;28;20024;-62
2022/09/22 06:42:35;;;;;;;32.63;25.20;;;;;;;6.94;95.14;102292.47;5075758;28;20028;-62
2022/09/22 06:45:02;;;;;;;33.63;25.27;;;;;;;6.93;95.01;102288.13;5075862;28;20415;-57
2022/09/22 06:47:28;;;;;;;33.90;25.83;;;;;;;7.01;95.11;102293.75;5081971;28;20032;-59
2022/09/22 06:49:53;;;;;;;33.72;25.00;;;;;;;7.05;95.21;102292.59;5071842;28;20479;-60
2022/09/22 06:52:19;;;;;;;33.53;25.65;;;;;;;7.09;95.54;102291.44;5053832;28;20068;-59
2022/09/22 06:54:44;;;;;;;31.40;24.15;;;;;;;7.12;94.61;102283.31;5076538;28;20119;-57
2022/09/22 06:57:10;;;;;;;32.78;25.58;;;;;;;7.15;95.44;102290.19;5074676;28;20063;-61
2022/09/22 06:59:37;;;;;;;34.53;26.58;;;;;;;7.22;96.08;102293.25;5079066;28;20090;-63
2022/09/22 07:02:06;;;;;;;33.20;26.17;;;;;;;7.24;95.67;102286.06;5077532;28;20032;-61
2022/09/22 07:04:32;;;;;;;35.20;26.08;;;;;;;7.29;96.65;102283.97;5077416;28;20123;-61
2022/09/22 07:06:57;;;;;;;34.38;27.45;;;;;;;7.36;96.91;102277.31;5066158;28;20086;-63
2022/09/22 07:09:23;;;;;;;35.47;27.17;;;;;;;7.47;97.29;102278.41;5064478;28;20218;-64
2022/09/22 07:11:48;;;;;;;32.00;25.67;;;;;;;7.52;96.65;102278.94;5060655;28;20032;-61
2022/09/22 07:14:13;;;;;;;30.42;25.75;;;;;;;7.61;96.40;102283.56;5075401;28;20028;-61
2022/09/22 07:16:39;;;;;;;33.00;24.08;;;;;;;7.69;96.22;102282.19;5067739;28;20035;-58
2022/09/22 07:19:05;;;;;;;33.85;25.90;;;;;;;7.80;96.36;102277.03;5068376;28;20032;-57
2022/09/22 07:21:36;;;;;;;32.00;26.25;;;;;;;7.87;96.85;102278.28;5065690;28;20028;-59
2022/09/22 07:24:03;;;;;;;31.52;25.58;;;;;;;7.96;97.07;102276.78;5079792;28;20159;-58
2022/09/22 07:26:31;;;;;;;32.05;24.48;;;;;;;8.08;96.35;102275.91;5073601;28;20024;-58
2022/09/22 07:28:58;;;;;;;33.25;22.80;;;;;;;8.17;95.70;102273.56;5065973;28;20016;-59
2022/09/22 07:31:29;;;;;;;30.42;23.80;;;;;;;8.26;94.41;102272.91;5072920;28;20128;-60
2022/09/22 07:33:55;;;;;;;33.42;23.50;;;;;;;8.36;95.21;102275.72;5061906;28;20028;-55
2022/09/22 07:36:22;;;;;;;33.97;23.30;;;;;;;8.44;94.67;102270.69;5071771;28;20036;-58
2022/09/22 07:38:51;;;;;;;31.40;22.35;;;;;;;8.49;95.12;102273.03;5073748;28;20020;-58
2022/09/22 07:41:21;;;;;;;32.97;21.02;;;;;;;8.58;93.41;102266.22;5060244;28;20028;-59
2022/09/22 07:43:52;;;;;;;26.35;19.92;;;;;;;8.66;92.79;102268.31;5060671;28;20070;-58
2022/09/22 07:46:18;;;;;;;26.75;20.75;;;;;;;8.73;93.23;102275.69;5061216;28;20079;-60
2022/09/22 07:48:45;;;;;;;24.88;20.63;;;;;;;8.84;93.65;102271.41;5061039;28;20131;-60
2022/09/22 07:51:20;;;;;;;26.02;19.25;;;;;;;8.92;93.03;102273.50;5062074;28;20490;-58
2022/09/22 07:53:53;;;;;;;27.45;20.10;;;;;;;9.02;92.64;102269.16;5068123;28;20028;-57
2022/09/22 07:56:20;;;;;;;26.60;19.60;;;;;;;9.11;91.94;102272.91;5081723;28;20385;-58
2022/09/22 07:58:52;;;;;;;23.58;19.10;;;;;;;9.17;91.64;102275.09;5077393;28;20323;-58
2022/09/22 08:01:25;;;;;;;23.27;18.50;;;;;;;9.27;92.76;102270.81;5074466;28;20107;-60
2022/09/22 08:03:51;;;;;;;21.60;15.52;;;;;;;9.37;90.96;102267.47;5081972;28;20078;-58
2022/09/22 08:06:18;;;;;;;18.92;13.13;;;;;;;9.50;90.69;102262.91;5064193;28;20507;-59
2022/09/22 08:08:46;;;;;;;21.63;14.20;;;;;;;9.58;89.23;102269.41;5061122;28;20411;-56
2022/09/22 08:11:17;;;;;;;20.73;14.50;;;;;;;9.63;88.93;102262.75;5079533;28;20107;-57
2022/09/22 08:13:55;;;;;;;23.48;14.18;;;;;;;9.72;89.07;102258.53;5081218;28;20042;-59
2022/09/22 08:16:22;;;;;;;17.67;12.80;;;;;;;9.83;88.27;102258.53;5063106;28;20036;-60
2022/09/22 08:18:49;;;;;;;17.83;12.88;;;;;;;9.92;87.46;102256.97;5060689;28;20032;-58
2022/09/22 08:21:18;;;;;;;17.35;12.75;;;;;;;10.00;88.82;102253.72;5060008;28;21607;-58
2022/09/22 08:23:44;;;;;;;17.00;12.85;;;;;;;10.11;85.63;102254.66;5068130;28;20031;-59
2022/09/22 08:26:09;;;;;;;19.70;12.73;;;;;;;10.19;86.55;102257.53;5080752;28;20028;-59
2022/09/22 08:28:35;;;;;;;18.30;13.15;;;;;;;10.21;86.77;102250.28;5080996;28;20232;-57
2022/09/22 08:31:01;;;;;;;19.27;12.50;;;;;;;10.29;85.99;102254.97;5066942;28;20028;-57
2022/09/22 08:33:29;;;;;;;18.20;12.30;;;;;;;10.35;85.29;102247.38;5070474;28;20138;-58
2022/09/22 08:35:57;;;;;;;17.55;12.50;;;;;;;10.48;84.97;102251.72;5080507;28;20385;-58
2022/09/22 08:38:23;;;;;;;17.42;11.63;;;;;;;10.54;83.99;102247.69;5080536;28;20042;-57
2022/09/22 08:41:11;;;;;;;16.00;11.43;;;;;;;10.59;83.03;102243.72;5072439;28;20108;-57
2022/09/22 08:43:44;;;;;;;15.25;11.75;;;;;;;10.70;84.55;102255.25;5063703;28;20032;-57
2022/09/22 08:46:09;;;;;;;;;;;;;;;10.74;84.13;102246.03;5060630;28;20056;-58
2022/09/22 08:54:14;;;;;;;15.88;11.25;;;;;;;11.09;82.80;102244.03;5080682;28;20109;-57
2022/09/22 08:56:42;;;;;;;15.38;10.02;;;;;;;11.16;81.58;102245.22;5080058;28;20063;-59
2022/09/22 08:59:21;;;;;;;14.63;9.23;;;;;;;11.21;80.37;102242.19;5078414;28;20031;-58
2022/09/22 09:02:04;;;;;;;12.95;9.63;;;;;;;11.27;79.65;102246.97;5076026;28;20839;-60
2022/09/22 09:04:52;;;;;;;14.77;9.45;;;;;;;11.32;80.45;102249.22;5060054;28;20032;-57
2022/09/22 09:07:21;;;;;;;15.10;7.97;;;;;;;11.38;78.17;102249.53;5072382;28;20391;-57
2022/09/22 09:10:14;;;;;;;15.23;8.10;;;;;;;11.44;79.07;102254.31;5060307;28;20037;-58
2022/09/22 09:12:55;;;;;;;10.93;6.70;;;;;;;11.58;77.19;102260.25;5067474;28;20039;-58
2022/09/22 09:15:20;;;;;;;9.88;6.13;;;;;;;11.77;74.23;102263.94;5080042;28;20028;-58
2022/09/22 09:17:47;;;;;;;8.00;5.32;;;;;;;11.93;73.13;102261.63;5079066;28;20051;-57
2022/09/22 09:20:17;;;;;;;8.23;5.88;;;;;;;12.09;72.21;102257.66;5068231;28;20096;-59
2022/09/22 09:22:49;;;;;;;10.85;6.85;;;;;;;12.13;72.26;102253.72;5059253;28;20097;-57
2022/09/22 09:25:18;;;;;;;11.73;6.72;;;;;;;12.24;72.48;102260.78;5060049;28;20604;-57
2022/09/22 09:27:48;;;;;;;9.93;6.25;;;;;;;12.31;72.92;102250.41;5059501;28;20553;-56
2022/09/22 09:30:18;;;;;;;7.32;5.90;;;;;;;12.44;72.49;102250.97;5071976;28;20165;-58
2022/09/22 09:32:49;;;;;;;7.80;5.60;;;;;;;12.58;71.02;102257.72;5059514;28;20046;-59
2022/09/22 09:35:17;;;;;;;7.82;5.55;;;;;;;12.57;70.96;102255.16;5060880;28;20035;-59
2022/09/22 09:37:47;;;;;;;7.53;5.40;;;;;;;12.63;71.06;102255.47;5079706;28;20039;-57
2022/09/22 09:40:16;;;;;;;6.90;4.93;;;;;;;12.63;70.28;102236.84;5061972;28;20633;-57
2022/09/22 09:42:45;;;;;;;9.15;5.00;;;;;;;12.81;69.27;102251.25;5060163;28;20028;-57
2022/09/22 09:45:14;;;;;;;8.07;5.38;;;;;;;12.79;69.14;102246.09;5074157;28;20520;-57
2022/09/22 09:47:42;;;;;;;7.18;5.03;;;;;;;12.87;68.36;102250.69;5083629;28;20498;-58
2022/09/22 09:50:10;;;;;;;8.68;4.82;;;;;;;12.93;67.58;102236.78;5081245;28;20024;-56
2022/09/22 09:52:37;;;;;;;8.85;4.40;;;;;;;13.09;67.28;102249.53;5075964;28;20044;-58
2022/09/22 09:55:15;;;;;;;7.97;5.82;;;;;;;13.13;68.50;102250.09;5062995;28;20032;-59
2022/09/22 09:58:04;;;;;;;6.90;5.13;;;;;;;13.14;67.97;102241.13;5063365;28;20074;-58
2022/09/22 10:00:31;;;;;;;9.38;4.93;;;;;;;13.20;66.75;102240.53;5070832;28;20036;-56
2022/09/22 10:03:13;;;;;;;9.68;5.45;;;;;;;13.28;66.08;102242.50;5083061;28;20492;-56
2022/09/22 10:05:38;;;;;;;6.97;4.80;;;;;;;13.30;66.64;102235.19;5083982;28;20024;-57
2022/09/22 10:08:17;;;;;;;8.63;5.30;;;;;;;13.37;67.39;102235.44;5083442;28;20105;-57
2022/09/22 10:10:43;;;;;;;5.68;4.95;;;;;;;13.48;66.32;102237.97;5070247;28;20604;-60
2022/09/22 10:13:08;;;;;;;5.95;4.05;;;;;;;13.59;63.90;102234.25;5062929;28;20046;-57
2022/09/22 10:15:38;;;;;;;7.00;3.95;;;;;;;13.69;64.53;102234.22;5066184;28;20032;-57
2022/09/22 10:18:25;;;;;;;6.75;4.78;;;;;;;13.72;65.99;102228.59;5074236;28;20471;-58
2022/09/22 10:21:16;;;;;;;5.22;4.47;;;;;;;13.81;65.29;102225.03;5071559;28;20033;-59
2022/09/22 10:23:43;;;;;;;6.68;4.90;;;;;;;13.89;63.22;102224.28;5062680;28;20157;-56
2022/09/22 10:26:21;;;;;;;6.00;4.75;;;;;;;13.86;63.55;102224.56;5077108;28;20351;-56
2022/09/22 10:29:09;;;;;;;6.43;4.00;;;;;;;13.92;64.52;102229.31;5083072;28;20036;-58
2022/09/22 10:31:37;;;;;;;5.75;4.28;;;;;;;14.01;63.21;102226.75;5069642;28;20036;-58
2022/09/22 10:34:05;;;;;;;6.28;4.10;;;;;;;14.08;61.62;102217.16;5078564;28;20361;-57
2022/09/22 10:36:32;;;;;;;6.43;3.67;;;;;;;14.16;61.28;102213.72;5061570;28;20040;-58
2022/09/22 10:38:57;;;;;;;5.63;3.30;;;;;;;14.18;59.01;102206.41;5062609;28;20036;-57
2022/09/22 10:41:26;;;;;;;5.38;3.50;;;;;;;14.23;59.89;102204.13;5061963;28;20032;-57
2022/09/22 10:43:59;;;;;;;7.70;3.33;;;;;;;14.29;60.97;102211.53;5062495;28;20028;-59
2022/09/22 10:46:53;;;;;;;4.85;3.70;;;;;;;14.33;61.28;102207.56;5077255;28;20197;-57
2022/09/22 10:49:27;;;;;;;4.47;2.97;;;;;;;14.47;58.29;102203.53;5082562;28;20063;-57
2022/09/22 10:52:02;;;;;;;4.55;2.83;;;;;;;14.55;59.68;102209.91;5071047;28;20036;-58
2022/09/22 10:54:41;;;;;;;4.07;2.80;;;;;;;14.58;58.16;102198.91;5060934;28;20036;-59
2022/09/22 10:57:20;;;;;;;6.20;3.53;;;;;;;14.54;60.35;102187.72;5065439;28;20846;-58
2022/09/22 10:59:48;;;;;;;6.97;3.90;;;;;;;14.64;59.46;102207.16;5079754;28;20036;-56
2022/09/22 11:02:51;;;;;;;5.35;3.63;;;;;;;14.70;58.38;102197.66;5063072;28;20028;-58
2022/09/22 11:14:16;;;;;;;7.45;4.00;;;;;;;15.11;58.02;102182.94;5072219;28;20521;-56
2022/09/22 11:16:56;;;;;;;4.97;3.80;;;;;;;15.21;58.52;102181.00;5078377;28;20028;-56
2022/09/22 11:19:30;;;;;;;6.82;4.07;;;;;;;15.23;58.42;102183.50;5061267;28;20037;-60
2022/09/22 11:22:21;;;;;;;6.78;3.30;;;;;;;15.32;57.85;102187.88;5062367;28;20155;-57
2022/09/22 11:25:06;;;;;;;6.80;3.65;;;;;;;15.41;55.53;102181.59;5082064;28;20028;-57
2022/09/22 11:28:08;;;;;;;4.50;3.28;;;;;;;15.27;57.64;102192.88;5081969;28;20360;-57
2022/09/22 11:30:45;;;;;;;8.80;3.97;;;;;;;15.14;57.51;102186.13;5060762;28;20045;-57
2022/09/22 11:33:33;;;;;;;9.10;3.90;;;;;;;15.11;55.66;102178.44;5080454;28;20028;-59
2022/09/22 11:36:06;;;;;;;4.60;3.70;;;;;;;14.96;55.59;102174.69;5062046;28;20097;-57
2022/09/22 11:39:08;;;;;;;3.55;3.22;;;;;;;15.01;58.24;102169.72;5061985;28;20044;-59
2022/09/22 11:41:42;;;;;;;7.43;4.00;;;;;;;15.26;56.01;102167.16;5070330;28;20106;-58
2022/09/22 11:44:28;;;;;;;4.03;2.50;;;;;;;15.43;55.60;102157.34;5081048;28;20290;-59
2022/09/22 11:47:14;;;;;;;4.50;2.60;;;;;;;15.60;53.99;102160.94;5069626;28;20068;-57